Time;durP1;ratioP1;P1;durP2;ratioP2;P2;SDS_P1;SDS_P2;PMS_P1;PMS_P2;Temp;Humidity;BMP_temperature;BMP_pressure;BME280_temperature;BME280_humidity;BME280_pressure;Samples;Min_cycle;Max_cycle;Signal;HPM_P1;HPM_P2
2021/03/26 00:02:13;;;;;;;;;;;8.90;94.60;;;;;;5073259;28;19904;-87
2021/03/26 00:04:39;;;;;;;;;;;8.90;94.60;;;;;;5073346;28;20035;-87
2021/03/26 00:07:04;;;;;;;;;;;8.90;94.70;;;;;;5073226;28;20460;-87
2021/03/26 00:09:32;;;;;;;;;;;8.90;94.70;;;;;;5054718;28;19905;-87
2021/03/26 00:11:59;;;;;;;;;;;8.80;94.70;;;;;;5055117;28;20257;-87
2021/03/26 00:14:24;;;;;;;;;;;8.80;94.70;;;;;;5055507;28;19904;-86
2021/03/26 00:16:50;;;;;;;;;;;8.80;94.90;;;;;;5055380;28;19927;-87
2021/03/26 00:19:16;;;;;;;;;;;8.80;94.80;;;;;;5072382;28;20407;-87
2021/03/26 00:21:41;;;;;;;;;;;8.80;94.80;;;;;;5074586;28;19904;-87
2021/03/26 00:24:07;;;;;;;;;;;8.80;94.80;;;;;;5075509;28;20280;-87
2021/03/26 00:26:33;;;;;;;;;;;8.70;94.70;;;;;;5057320;28;19934;-87
2021/03/26 00:28:58;;;;;;;;;;;8.70;94.60;;;;;;5054028;28;19905;-87
2021/03/26 00:31:24;;;;;;;;;;;8.60;94.70;;;;;;5072406;28;19904;-87
2021/03/26 00:33:49;;;;;;;;;;;8.60;94.70;;;;;;5054813;28;19905;-87
2021/03/26 00:36:15;;;;;;;;;;;8.60;94.70;;;;;;5054661;28;20009;-87
2021/03/26 00:38:41;;;;;;;;;;;8.50;94.70;;;;;;5054808;28;19908;-87
2021/03/26 00:41:07;;;;;;;;;;;8.50;94.60;;;;;;5072088;28;19904;-86
2021/03/26 00:43:32;;;;;;;;;;;8.50;94.70;;;;;;5072696;28;19941;-86
2021/03/26 00:45:58;;;;;;;;;;;8.40;94.70;;;;;;5054729;28;19913;-87
2021/03/26 00:48:24;;;;;;;;;;;8.40;94.80;;;;;;5054800;28;19995;-87
2021/03/26 00:50:51;;;;;;;;;;;8.40;94.90;;;;;;5054278;28;19916;-87
2021/03/26 00:53:25;;;;;;;;;;;8.40;94.80;;;;;;5054556;28;19911;-87
2021/03/26 00:55:51;;;;;;;;;;;8.40;95.00;;;;;;5072541;28;19919;-88
2021/03/26 00:58:17;;;;;;;;;;;8.30;95.00;;;;;;5054568;28;20371;-87
2021/03/26 01:00:42;;;;;;;;;;;8.30;95.10;;;;;;5072063;28;19909;-87
2021/03/26 01:03:09;;;;;;;;;;;8.30;95.10;;;;;;5054481;28;19999;-87
2021/03/26 01:05:37;;;;;;;;;;;8.30;95.20;;;;;;5072693;28;19928;-87
2021/03/26 01:08:02;;;;;;;;;;;8.30;95.10;;;;;;5054546;28;19955;-87
2021/03/26 01:10:31;;;;;;;;;;;8.20;95.20;;;;;;5054036;28;19970;-86
2021/03/26 01:12:57;;;;;;;;;;;8.30;95.20;;;;;;5072412;28;20023;-87
2021/03/26 01:15:25;;;;;;;;;;;8.20;95.30;;;;;;5054668;28;19908;-87
2021/03/26 01:17:51;;;;;;;;;;;8.20;95.30;;;;;;5054755;28;19927;-87
2021/03/26 01:20:18;;;;;;;;;;;8.20;95.20;;;;;;5053861;28;20277;-87
2021/03/26 01:22:44;;;;;;;;;;;8.20;95.20;;;;;;5072283;28;20320;-87
2021/03/26 01:25:18;;;;;;;;;;;8.10;95.20;;;;;;5073610;28;19904;-86
2021/03/26 01:27:43;;;;;;;;;;;8.10;95.30;;;;;;5054898;28;19904;-86
2021/03/26 01:30:10;;;;;;;;;;;8.10;95.40;;;;;;5072740;28;20475;-86
2021/03/26 01:32:35;;;;;;;;;;;8.00;95.40;;;;;;5054771;28;19910;-85
2021/03/26 01:35:01;;;;;;;;;;;8.00;95.40;;;;;;5054775;28;20011;-86
2021/03/26 01:37:26;;;;;;;;;;;8.00;95.40;;;;;;5054856;28;19905;-87
2021/03/26 01:39:52;;;;;;;;;;;7.90;95.30;;;;;;5073250;28;20380;-86
2021/03/26 01:42:22;;;;;;;;;;;7.90;95.60;;;;;;5058645;28;20373;-86
2021/03/26 01:44:47;;;;;;;;;;;7.90;95.40;;;;;;5076526;28;19905;-85
2021/03/26 01:47:13;;;;;;;;;;;7.90;95.50;;;;;;5058527;28;19911;-87
2021/03/26 01:49:38;;;;;;;;;;;7.90;95.50;;;;;;5058538;28;19953;-85
2021/03/26 01:52:04;;;;;;;;;;;7.90;95.60;;;;;;5076230;28;19919;-86
2021/03/26 01:54:31;;;;;;;;;;;7.90;95.40;;;;;;5058145;28;19943;-86
2021/03/26 01:56:56;;;;;;;;;;;7.80;95.70;;;;;;5058375;28;19954;-85
2021/03/26 01:59:22;;;;;;;;;;;7.80;95.70;;;;;;5076128;28;20366;-85
2021/03/26 02:01:54;;;;;;;;;;;7.80;95.40;;;;;;5074920;28;19908;-85
2021/03/26 02:04:29;;;;;;;;;;;7.80;95.50;;;;;;5058342;28;19927;-85
2021/03/26 02:06:55;;;;;;;;;;;7.80;95.70;;;;;;5058224;28;19954;-85
2021/03/26 02:09:22;;;;;;;;;;;7.80;95.60;;;;;;5076112;28;19968;-86
2021/03/26 02:11:52;;;;;;;;;;;7.70;95.60;;;;;;5057954;28;19908;-86
2021/03/26 02:14:20;;;;;;;;;;;7.70;95.60;;;;;;5075902;28;19908;-86
2021/03/26 02:16:46;;;;;;;;;;;7.70;95.60;;;;;;5058262;28;19904;-86
2021/03/26 02:19:26;;;;;;;;;;;7.70;95.50;;;;;;5075856;28;19920;-86
2021/03/26 02:21:52;;;;;;;;;;;7.70;95.60;;;;;;5075924;28;19904;-86
2021/03/26 02:24:18;;;;;;;;;;;7.60;95.80;;;;;;5058487;28;19908;-85
2021/03/26 02:26:45;;;;;;;;;;;7.60;95.60;;;;;;5057950;28;19904;-86
2021/03/26 02:29:24;;;;;;;;;;;7.80;95.50;;;;;;5057867;28;20345;-86
2021/03/26 02:31:54;;;;;;;;;;;7.70;95.70;;;;;;5075757;28;19911;-86
2021/03/26 02:34:21;;;;;;;;;;;7.70;95.40;;;;;;5075453;28;19908;-86
2021/03/26 02:36:48;;;;;;;;;;;7.70;95.40;;;;;;5075633;28;20304;-86
2021/03/26 02:39:34;;;;;;;;;;;7.70;95.50;;;;;;5075499;28;19906;-86
2021/03/26 02:42:02;;;;;;;;;;;7.70;95.40;;;;;;5033375;28;19918;-86
2021/03/26 02:45:00;;;;;;;;;;;7.70;95.40;;;;;;5075570;28;19909;-86
2021/03/26 02:47:44;;;;;;;;;;;7.60;95.60;;;;;;5013939;28;19911;-86
2021/03/26 02:50:27;;;;;;;;;;;7.60;95.80;;;;;;5075465;28;20369;-85
2021/03/26 02:52:58;;;;;;;;;;;7.70;96.00;;;;;;5075117;28;19908;-86
2021/03/26 02:55:34;;;;;;;;;;;7.70;95.60;;;;;;5057465;28;19916;-86
2021/03/26 02:58:03;;;;;;;;;;;7.70;95.70;;;;;;5075332;28;19904;-86
2021/03/26 03:00:31;;;;;;;;;;;7.70;95.90;;;;;;5057242;28;19934;-87
2021/03/26 03:02:58;;;;;;;;;;;7.70;96.00;;;;;;5057198;28;19904;-86
2021/03/26 03:05:32;;;;;;;;;;;7.80;95.90;;;;;;5057056;28;19910;-86
2021/03/26 03:08:10;;;;;;;;;;;7.80;95.90;;;;;;5057055;28;19914;-86
2021/03/26 03:10:38;;;;;;;;;;;7.80;96.00;;;;;;5056677;28;19908;-87
2021/03/26 03:13:10;;;;;;;;;;;7.90;95.70;;;;;;5074900;28;19962;-85
2021/03/26 03:15:38;;;;;;;;;;;7.80;95.60;;;;;;5057021;28;19908;-85
2021/03/26 03:18:07;;;;;;;;;;;7.80;95.70;;;;;;5056804;28;20349;-86
2021/03/26 03:20:52;;;;;;;;;;;7.70;96.00;;;;;;5056699;28;19908;-86
2021/03/26 03:23:17;;;;;;;;;;;7.60;95.90;;;;;;5055941;28;19927;-86
2021/03/26 03:25:43;;;;;;;;;;;7.60;95.80;;;;;;5056510;28;20007;-86
2021/03/26 03:28:18;;;;;;;;;;;7.60;95.90;;;;;;5074576;28;19905;-86
2021/03/26 03:31:02;;;;;;;;;;;7.50;95.90;;;;;;5056574;28;19904;-87
2021/03/26 03:33:31;;;;;;;;;;;7.60;96.10;;;;;;5056439;28;20418;-86
2021/03/26 03:35:58;;;;;;;;;;;7.70;95.90;;;;;;5074230;28;19915;-85
2021/03/26 03:38:34;;;;;;;;;;;7.70;95.80;;;;;;5056410;28;19942;-86
2021/03/26 03:41:02;;;;;;;;;;;7.70;95.80;;;;;;5056793;28;19922;-86
2021/03/26 03:43:43;;;;;;;;;;;7.80;95.90;;;;;;5074196;28;19908;-86
2021/03/26 03:46:15;;;;;;;;;;;7.80;95.50;;;;;;5056461;28;19904;-86
2021/03/26 03:48:47;;;;;;;;;;;7.90;95.50;;;;;;5074213;28;19958;-86
2021/03/26 03:51:18;;;;;;;;;;;7.90;95.20;;;;;;5074068;28;19904;-86
2021/03/26 03:53:44;;;;;;;;;;;7.90;95.40;;;;;;5055947;28;19904;-87
2021/03/26 03:56:30;;;;;;;;;;;8.00;95.20;;;;;;5073952;28;19915;-86
2021/03/26 03:59:06;;;;;;;;;;;8.00;95.30;;;;;;5073988;28;19923;-85
2021/03/26 04:01:34;;;;;;;;;;;8.00;95.30;;;;;;5074065;28;20015;-86
2021/03/26 04:04:09;;;;;;;;;;;8.00;95.20;;;;;;5055273;28;19991;-86
2021/03/26 04:06:50;;;;;;;;;;;8.00;95.10;;;;;;5055974;28;19905;-86
2021/03/26 04:09:17;;;;;;;;;;;8.10;95.10;;;;;;5055703;28;19955;-85
2021/03/26 04:11:48;;;;;;;;;;;8.00;95.20;;;;;;5055935;28;20347;-86
2021/03/26 04:14:22;;;;;;;;;;;8.10;95.10;;;;;;5073754;28;19908;-86
2021/03/26 04:16:51;;;;;;;;;;;8.10;95.00;;;;;;5073699;28;19947;-85
2021/03/26 04:19:18;;;;;;;;;;;8.10;95.10;;;;;;5055683;28;19912;-88
2021/03/26 04:21:45;;;;;;;;;;;8.10;95.10;;;;;;5073621;28;19908;-86
2021/03/26 04:24:17;;;;;;;;;;;8.10;95.10;;;;;;5073567;28;19905;-86
2021/03/26 04:26:45;;;;;;;;;;;8.10;94.90;;;;;;5073630;28;19908;-86
2021/03/26 04:29:16;;;;;;;;;;;8.10;95.00;;;;;;5073518;28;19966;-86
2021/03/26 04:31:45;;;;;;;;;;;8.00;95.00;;;;;;5055427;28;19911;-86
2021/03/26 04:34:11;;;;;;;;;;;8.00;95.10;;;;;;5055345;28;19994;-86
2021/03/26 04:36:54;;;;;;;;;;;8.00;95.10;;;;;;5055430;28;19947;-86
2021/03/26 04:39:24;;;;;;;;;;;8.00;95.20;;;;;;5073383;28;20057;-85
2021/03/26 04:41:58;;;;;;;;;;;8.00;95.10;;;;;;5055368;28;20014;-86
2021/03/26 04:44:26;;;;;;;;;;;8.00;95.00;;;;;;5073446;28;19995;-85
2021/03/26 04:47:00;;;;;;;;;;;8.00;95.10;;;;;;5055328;28;19930;-86
2021/03/26 04:49:35;;;;;;;;;;;8.10;95.00;;;;;;5073283;28;20373;-87
2021/03/26 04:52:07;;;;;;;;;;;8.00;95.20;;;;;;5055213;28;20042;-86
2021/03/26 04:55:05;;;;;;;;;;;8.00;95.10;;;;;;5073144;28;20029;-85
2021/03/26 04:57:32;;;;;;;;;;;8.00;95.10;;;;;;5028566;28;20271;-85
2021/03/26 04:59:58;;;;;;;;;;;8.00;95.20;;;;;;5055109;28;20360;-86
2021/03/26 05:02:24;;;;;;;;;;;8.00;95.20;;;;;;5055233;28;19935;-85
2021/03/26 05:04:53;;;;;;;;;;;7.90;95.40;;;;;;5073123;28;19908;-86
2021/03/26 05:07:21;;;;;;;;;;;7.80;95.50;;;;;;5055316;28;19908;-86
2021/03/26 05:09:50;;;;;;;;;;;7.90;95.60;;;;;;5055051;28;19955;-85
2021/03/26 05:12:30;;;;;;;;;;;7.90;95.50;;;;;;5055047;28;20015;-86
2021/03/26 05:15:03;;;;;;;;;;;7.80;95.60;;;;;;5057430;28;20394;-86
2021/03/26 05:17:49;;;;;;;;;;;7.80;95.40;;;;;;5059213;28;19904;-86
2021/03/26 05:20:17;;;;;;;;;;;7.70;95.50;;;;;;5018679;28;19950;-86
2021/03/26 05:23:02;;;;;;;;;;;7.80;95.60;;;;;;5059127;28;19905;-86
2021/03/26 05:25:30;;;;;;;;;;;7.80;95.60;;;;;;5059117;28;19908;-86
2021/03/26 05:27:57;;;;;;;;;;;7.80;95.60;;;;;;5059194;28;20269;-86
2021/03/26 05:30:25;;;;;;;;;;;7.80;95.60;;;;;;5058938;28;19990;-88
2021/03/26 05:32:53;;;;;;;;;;;7.80;95.40;;;;;;5058745;28;19944;-88
2021/03/26 05:35:19;;;;;;;;;;;7.80;95.50;;;;;;5058607;28;20280;-86
2021/03/26 05:38:02;;;;;;;;;;;7.80;95.70;;;;;;5058741;28;19912;-86
2021/03/26 05:40:28;;;;;;;;;;;7.80;95.70;;;;;;5059256;28;19943;-86
2021/03/26 05:43:00;;;;;;;;;;;7.70;95.70;;;;;;5059123;28;19912;-86
2021/03/26 05:45:29;;;;;;;;;;;7.70;95.70;;;;;;5059978;28;19995;-86
2021/03/26 05:48:03;;;;;;;;;;;7.70;95.80;;;;;;5059809;28;20004;-86
2021/03/26 05:50:48;;;;;;;;;;;7.70;96.00;;;;;;5059799;28;20418;-86
2021/03/26 05:53:24;;;;;;;;;;;7.70;95.90;;;;;;5059215;28;19904;-86
2021/03/26 05:56:01;;;;;;;;;;;7.90;95.70;;;;;;5059349;28;19927;-86
2021/03/26 05:58:43;;;;;;;;;;;7.80;95.80;;;;;;5058503;28;19905;-87
2021/03/26 06:01:08;;;;;;;;;;;7.80;95.90;;;;;;5059220;28;19955;-85
2021/03/26 06:03:56;;;;;;;;;;;7.80;95.90;;;;;;5058073;28;19944;-86
2021/03/26 06:06:27;;;;;;;;;;;7.80;96.00;;;;;;5058987;28;20272;-85
2021/03/26 06:09:03;;;;;;;;;;;7.80;95.90;;;;;;5058474;28;20369;-88
2021/03/26 06:11:52;;;;;;;;;;;7.90;95.90;;;;;;5058943;28;19908;-85
2021/03/26 06:14:36;;;;;;;;;;;7.90;95.90;;;;;;5047651;28;19999;-88
2021/03/26 06:17:15;;;;;;;;;;;7.90;95.80;;;;;;5058267;28;20388;-87
2021/03/26 06:19:52;;;;;;;;;;;7.90;96.20;;;;;;5058530;28;20052;-86
2021/03/26 06:22:37;;;;;;;;;;;8.00;95.90;;;;;;5058448;28;19958;-86
2021/03/26 06:25:21;;;;;;;;;;;8.10;95.90;;;;;;5057925;28;19905;-86
2021/03/26 06:27:51;;;;;;;;;;;8.10;95.80;;;;;;5058578;28;19905;-86
2021/03/26 06:30:26;;;;;;;;;;;8.10;95.80;;;;;;5057726;28;20054;-86
2021/03/26 06:32:53;;;;;;;;;;;8.20;95.80;;;;;;5057761;28;19927;-87
2021/03/26 06:35:39;;;;;;;;;;;8.20;95.80;;;;;;5057326;28;19910;-86
2021/03/26 06:38:15;;;;;;;;;;;8.20;95.80;;;;;;5057502;28;19904;-86
2021/03/26 06:40:47;;;;;;;;;;;8.30;95.90;;;;;;5057251;28;20429;-86
2021/03/26 06:43:18;;;;;;;;;;;8.30;95.70;;;;;;5057185;28;20365;-87
2021/03/26 06:45:50;;;;;;;;;;;8.30;95.60;;;;;;5057210;28;19926;-86
2021/03/26 06:48:18;;;;;;;;;;;8.30;95.60;;;;;;5057247;28;19947;-85
2021/03/26 06:51:06;;;;;;;;;;;8.30;95.60;;;;;;5057408;28;20357;-89
2021/03/26 06:53:31;;;;;;;;;;;8.40;95.60;;;;;;5056984;28;19904;-86
2021/03/26 06:56:14;;;;;;;;;;;8.40;95.50;;;;;;5057136;28;19999;-86
2021/03/26 06:58:46;;;;;;;;;;;8.50;95.40;;;;;;5056918;28;19926;-86
2021/03/26 07:01:31;;;;;;;;;;;8.50;95.30;;;;;;5057103;28;20003;-86
2021/03/26 07:03:56;;;;;;;;;;;8.50;95.20;;;;;;5056924;28;19911;-86
2021/03/26 07:06:38;;;;;;;;;;;8.60;95.30;;;;;;5057046;28;19995;-86
2021/03/26 07:09:22;;;;;;;;;;;8.60;95.20;;;;;;5056861;28;19904;-86
2021/03/26 07:12:06;;;;;;;;;;;8.60;95.00;;;;;;5056811;28;19905;-86
2021/03/26 07:14:44;;;;;;;;;;;8.70;95.00;;;;;;5056727;28;19954;-85
2021/03/26 07:17:10;;;;;;;;;;;8.70;95.00;;;;;;5056638;28;19908;-86
2021/03/26 07:19:35;;;;;;;;;;;8.80;94.90;;;;;;5056716;28;20411;-86
2021/03/26 07:22:04;;;;;;;;;;;8.90;94.80;;;;;;5056766;28;20003;-86
2021/03/26 07:24:45;;;;;;;;;;;8.90;94.70;;;;;;5057375;28;19923;-87
2021/03/26 07:27:15;;;;;;;;;;;9.00;94.50;;;;;;5057193;28;19904;-86
2021/03/26 07:29:50;;;;;;;;;;;9.00;94.50;;;;;;5074250;28;19944;-87
2021/03/26 07:32:16;;;;;;;;;;;9.00;94.30;;;;;;5056633;28;19909;-86
2021/03/26 07:34:59;;;;;;;;;;;9.10;94.10;;;;;;5056902;28;19904;-87
2021/03/26 07:37:34;;;;;;;;;;;9.10;93.80;;;;;;5055636;28;19904;-86
2021/03/26 07:40:18;;;;;;;;;;;9.20;93.70;;;;;;5074035;28;20422;-87
2021/03/26 07:43:03;;;;;;;;;;;9.20;93.50;;;;;;5074507;28;19942;-86
2021/03/26 07:45:47;;;;;;;;;;;9.30;93.40;;;;;;5056404;28;19951;-87
2021/03/26 07:48:16;;;;;;;;;;;9.30;93.20;;;;;;5056886;28;19904;-87
2021/03/26 07:50:41;;;;;;;;;;;9.40;93.10;;;;;;5056105;28;19911;-86
2021/03/26 07:53:16;;;;;;;;;;;9.40;93.20;;;;;;5056389;28;19904;-87
2021/03/26 07:55:47;;;;;;;;;;;9.40;93.00;;;;;;5056298;28;19915;-87
2021/03/26 07:58:25;;;;;;;;;;;9.50;93.10;;;;;;5056486;28;19913;-86
2021/03/26 08:00:57;;;;;;;;;;;9.50;92.80;;;;;;5055582;28;19931;-87
2021/03/26 08:03:22;;;;;;;;;;;9.50;92.70;;;;;;5074322;28;20323;-87
2021/03/26 08:06:10;;;;;;;;;;;9.60;92.60;;;;;;5074406;28;19908;-87
2021/03/26 08:08:38;;;;;;;;;;;9.60;92.50;;;;;;5073897;28;19923;-87
2021/03/26 08:11:06;;;;;;;;;;;9.60;92.40;;;;;;5073228;28;20020;-87
2021/03/26 08:13:47;;;;;;;;;;;9.70;92.50;;;;;;5074301;28;19904;-86
2021/03/26 08:16:18;;;;;;;;;;;9.70;92.50;;;;;;5074284;28;19911;-87
2021/03/26 08:18:47;;;;;;;;;;;9.80;92.30;;;;;;5055886;28;19935;-87
2021/03/26 08:21:24;;;;;;;;;;;9.80;91.90;;;;;;5073496;28;19910;-86
2021/03/26 08:24:02;;;;;;;;;;;9.90;91.90;;;;;;5055687;28;20003;-87
2021/03/26 08:26:44;;;;;;;;;;;9.90;91.70;;;;;;5055845;28;19970;-87
2021/03/26 08:29:24;;;;;;;;;;;10.00;91.80;;;;;;5073141;28;20349;-86
2021/03/26 08:31:50;;;;;;;;;;;10.00;91.60;;;;;;5073659;28;19919;-87
2021/03/26 08:34:15;;;;;;;;;;;10.10;91.10;;;;;;5055752;28;19905;-86
2021/03/26 08:37:07;;;;;;;;;;;10.10;91.10;;;;;;5055543;28;19922;-87
2021/03/26 08:39:33;;;;;;;;;;;10.20;91.10;;;;;;5050531;28;20014;-87
2021/03/26 08:42:01;;;;;;;;;;;10.20;91.10;;;;;;5073558;28;19939;-87
2021/03/26 08:44:27;;;;;;;;;;;10.20;91.20;;;;;;5055647;28;19962;-87
2021/03/26 08:46:54;;;;;;;;;;;10.30;90.70;;;;;;5055766;28;19927;-86
2021/03/26 08:49:23;;;;;;;;;;;10.30;90.70;;;;;;5054923;28;19904;-87
2021/03/26 08:51:51;;;;;;;;;;;10.40;90.50;;;;;;5055833;28;19966;-87
2021/03/26 08:54:43;;;;;;;;;;;10.40;90.20;;;;;;5073366;28;19904;-87
2021/03/26 08:57:11;;;;;;;;;;;10.40;90.40;;;;;;5055344;28;20258;-87
2021/03/26 08:59:37;;;;;;;;;;;10.50;90.10;;;;;;5054653;28;19978;-87
2021/03/26 09:02:02;;;;;;;;;;;10.60;90.00;;;;;;5055120;28;20474;-87
2021/03/26 09:04:37;;;;;;;;;;;10.60;89.20;;;;;;5073188;28;19908;-87
2021/03/26 09:07:23;;;;;;;;;;;10.60;89.40;;;;;;5055319;28;19904;-87
2021/03/26 09:10:02;;;;;;;;;;;10.60;88.80;;;;;;5054793;28;19904;-87
2021/03/26 09:12:36;;;;;;;;;;;10.60;89.20;;;;;;5073520;28;19904;-87
2021/03/26 09:15:02;;;;;;;;;;;10.70;89.50;;;;;;5055266;28;19908;-86
2021/03/26 09:17:45;;;;;;;;;;;10.70;88.10;;;;;;5073410;28;20361;-87
2021/03/26 09:20:32;;;;;;;;;;;10.80;88.50;;;;;;5072377;28;19912;-87
2021/03/26 09:23:07;;;;;;;;;;;10.90;87.70;;;;;;5056444;28;19971;-86
2021/03/26 09:25:46;;;;;;;;;;;10.90;87.60;;;;;;5055336;28;19905;-88
2021/03/26 09:28:12;;;;;;;;;;;10.90;88.20;;;;;;5072944;28;19904;-87
2021/03/26 09:30:40;;;;;;;;;;;11.00;87.70;;;;;;5054771;28;19916;-87
2021/03/26 09:33:05;;;;;;;;;;;11.10;87.40;;;;;;5076236;28;20273;-87
2021/03/26 09:35:40;;;;;;;;;;;11.10;87.40;;;;;;5055959;28;19908;-87
2021/03/26 09:38:17;;;;;;;;;;;11.10;86.30;;;;;;5055539;28;20372;-87
2021/03/26 09:40:54;;;;;;;;;;;11.10;86.60;;;;;;5054903;28;19904;-87
2021/03/26 09:43:19;;;;;;;;;;;11.20;86.00;;;;;;5055332;28;20288;-87
2021/03/26 09:46:00;;;;;;;;;;;11.30;86.20;;;;;;5072732;28;19904;-86
2021/03/26 09:48:25;;;;;;;;;;;11.30;84.70;;;;;;5072895;28;19904;-87
2021/03/26 09:51:02;;;;;;;;;;;11.30;83.80;;;;;;5073299;28;19905;-87
2021/03/26 09:53:30;;;;;;;;;;;11.50;83.10;;;;;;5055666;28;19951;-87
2021/03/26 09:56:06;;;;;;;;;;;11.50;82.60;;;;;;5054687;28;20357;-86
2021/03/26 09:58:39;;;;;;;;;;;11.50;83.00;;;;;;5054463;28;19908;-86
2021/03/26 10:01:12;;;;;;;;;;;11.50;83.00;;;;;;5073232;28;19931;-85
2021/03/26 10:03:44;;;;;;;;;;;11.60;83.30;;;;;;5058120;28;19985;-86
2021/03/26 10:06:28;;;;;;;;;;;11.60;83.60;;;;;;5058182;28;20313;-86
2021/03/26 10:11:25;;;;;;;;;;;11.70;82.90;;;;;;5058502;28;19966;-86
2021/03/26 10:13:53;;;;;;;;;;;11.70;83.30;;;;;;5057902;28;20349;-86
2021/03/26 10:16:23;;;;;;;;;;;11.90;82.60;;;;;;5058053;28;19982;-85
2021/03/26 10:18:52;;;;;;;;;;;12.00;81.50;;;;;;5057948;28;19916;-86
2021/03/26 10:21:21;;;;;;;;;;;12.00;81.50;;;;;;5058078;28;19919;-87
2021/03/26 10:23:52;;;;;;;;;;;12.00;80.70;;;;;;5057797;28;20308;-86
2021/03/26 10:26:25;;;;;;;;;;;12.00;79.90;;;;;;5057915;28;20284;-86
2021/03/26 10:28:58;;;;;;;;;;;12.00;78.00;;;;;;5057709;28;19908;-86
2021/03/26 10:31:29;;;;;;;;;;;12.00;78.30;;;;;;5057869;28;19919;-86
2021/03/26 10:34:00;;;;;;;;;;;12.00;76.80;;;;;;5057677;28;20400;-86
2021/03/26 10:36:30;;;;;;;;;;;12.00;77.60;;;;;;5057827;28;20464;-86
2021/03/26 10:39:02;;;;;;;;;;;12.10;78.10;;;;;;5057492;28;19905;-86
2021/03/26 10:41:39;;;;;;;;;;;12.20;78.10;;;;;;5057746;28;20361;-86
2021/03/26 10:44:18;;;;;;;;;;;12.20;77.90;;;;;;5057557;28;19908;-86
2021/03/26 10:46:48;;;;;;;;;;;12.40;76.80;;;;;;5057506;28;19904;-87
2021/03/26 10:49:15;;;;;;;;;;;12.40;77.10;;;;;;5057448;28;20482;-86
2021/03/26 10:51:47;;;;;;;;;;;12.40;76.40;;;;;;5057490;28;19934;-86
2021/03/26 10:54:21;;;;;;;;;;;12.30;76.10;;;;;;5057129;28;19905;-86
2021/03/26 10:56:50;;;;;;;;;;;12.40;76.70;;;;;;5057120;28;19947;-86
2021/03/26 10:59:35;;;;;;;;;;;12.40;76.20;;;;;;5057345;28;19959;-86
2021/03/26 11:02:23;;;;;;;;;;;12.50;74.40;;;;;;5016564;28;20010;-86
2021/03/26 11:05:07;;;;;;;;;;;12.40;74.40;;;;;;5057305;28;19939;-87
2021/03/26 11:07:36;;;;;;;;;;;12.50;72.90;;;;;;5057804;28;19911;-86
2021/03/26 11:10:04;;;;;;;;;;;12.40;73.70;;;;;;5057385;28;19939;-86
2021/03/26 11:12:42;;;;;;;;;;;12.40;74.40;;;;;;5056797;28;19943;-85
2021/03/26 11:15:16;;;;;;;;;;;12.50;74.00;;;;;;5057046;28;19908;-86
2021/03/26 11:17:57;;;;;;;;;;;12.50;73.30;;;;;;5057014;28;19904;-86
2021/03/26 11:20:26;;;;;;;;;;;12.50;73.20;;;;;;5057169;28;19917;-86
2021/03/26 11:22:54;;;;;;;;;;;12.50;72.90;;;;;;5057307;28;19999;-86
2021/03/26 11:25:22;;;;;;;;;;;12.50;73.30;;;;;;5056772;28;20349;-86
2021/03/26 11:27:49;;;;;;;;;;;12.50;73.50;;;;;;5056982;28;20230;-87
2021/03/26 11:30:17;;;;;;;;;;;12.50;73.20;;;;;;5056901;28;19919;-87
2021/03/26 11:32:44;;;;;;;;;;;12.40;73.10;;;;;;5056683;28;19995;-86
2021/03/26 11:35:13;;;;;;;;;;;12.40;73.60;;;;;;5056919;28;19958;-86
2021/03/26 11:37:42;;;;;;;;;;;12.50;73.20;;;;;;5056959;28;19916;-86
2021/03/26 11:40:15;;;;;;;;;;;12.60;73.20;;;;;;5056845;28;20272;-87
2021/03/26 11:43:04;;;;;;;;;;;12.60;73.70;;;;;;5056394;28;19904;-86
2021/03/26 11:45:29;;;;;;;;;;;12.70;72.70;;;;;;5019721;28;19958;-86
2021/03/26 11:48:13;;;;;;;;;;;12.80;72.50;;;;;;5056587;28;20393;-86
2021/03/26 11:50:43;;;;;;;;;;;12.90;72.20;;;;;;5056284;28;19905;-86
2021/03/26 11:53:28;;;;;;;;;;;12.90;72.10;;;;;;5056021;28;19909;-86
2021/03/26 11:56:00;;;;;;;;;;;12.90;72.10;;;;;;5055441;28;20367;-86
2021/03/26 11:58:31;;;;;;;;;;;12.90;71.20;;;;;;5056233;28;20246;-87
2021/03/26 12:01:03;;;;;;;;;;;12.90;71.40;;;;;;5056216;28;19918;-86
2021/03/26 12:03:42;;;;;;;;;;;12.90;71.40;;;;;;5056012;28;19909;-86
2021/03/26 12:06:07;;;;;;;;;;;12.90;71.00;;;;;;5055972;28;19908;-89
2021/03/26 12:08:33;;;;;;;;;;;12.90;71.40;;;;;;5055841;28;20045;-86
2021/03/26 12:11:05;;;;;;;;;;;12.90;71.10;;;;;;5055822;28;20269;-87
2021/03/26 12:13:45;;;;;;;;;;;13.00;71.20;;;;;;5055747;28;19905;-87
2021/03/26 12:16:30;;;;;;;;;;;13.10;71.00;;;;;;5055621;28;19908;-86
2021/03/26 12:18:55;;;;;;;;;;;13.10;71.60;;;;;;5055667;28;19913;-86
2021/03/26 12:21:34;;;;;;;;;;;13.10;71.60;;;;;;5055790;28;20277;-86
2021/03/26 12:24:19;;;;;;;;;;;13.10;71.20;;;;;;5054984;28;19941;-86
2021/03/26 12:26:54;;;;;;;;;;;13.20;71.30;;;;;;5055537;28;19911;-86
2021/03/26 12:29:24;;;;;;;;;;;13.30;71.90;;;;;;5055679;28;19913;-86
2021/03/26 12:32:00;;;;;;;;;;;13.30;71.10;;;;;;5055195;28;19998;-86
2021/03/26 12:34:25;;;;;;;;;;;13.30;71.30;;;;;;5055315;28;19995;-86
2021/03/26 12:37:00;;;;;;;;;;;13.30;70.50;;;;;;5055144;28;20027;-86
2021/03/26 12:39:25;;;;;;;;;;;13.30;70.20;;;;;;5055266;28;19926;-86
2021/03/26 12:42:11;;;;;;;;;;;13.30;70.60;;;;;;5055527;28;19995;-86
2021/03/26 12:44:59;;;;;;;;;;;13.40;70.40;;;;;;5041375;28;19905;-87
2021/03/26 12:47:54;;;;;;;;;;;13.40;70.50;;;;;;5055788;28;19912;-87
2021/03/26 12:50:36;;;;;;;;;;;13.50;69.90;;;;;;4985077;28;20502;-86
2021/03/26 12:53:06;;;;;;;;;;;13.50;70.00;;;;;;5055452;28;19912;-86
2021/03/26 12:55:41;;;;;;;;;;;13.50;70.20;;;;;;5054903;28;19908;-87
2021/03/26 12:58:18;;;;;;;;;;;13.50;69.70;;;;;;5055598;28;19987;-86
2021/03/26 13:00:47;;;;;;;;;;;13.50;70.30;;;;;;5054980;28;19926;-86
2021/03/26 13:03:15;;;;;;;;;;;13.50;70.30;;;;;;5055115;28;20437;-86
2021/03/26 13:05:42;;;;;;;;;;;13.50;70.60;;;;;;5055193;28;19905;-89
2021/03/26 13:08:10;;;;;;;;;;;13.50;70.70;;;;;;5054838;28;20384;-89
2021/03/26 13:10:44;;;;;;;;;;;13.50;70.50;;;;;;5054673;28;19904;-87
2021/03/26 13:13:18;;;;;;;;;;;13.60;69.40;;;;;;5054819;28;19994;-86
2021/03/26 13:16:06;;;;;;;;;;;13.60;69.90;;;;;;5055471;28;19908;-86
2021/03/26 13:18:32;;;;;;;;;;;13.60;69.60;;;;;;5054898;28;20266;-87
2021/03/26 13:21:10;;;;;;;;;;;13.60;69.70;;;;;;5054986;28;19929;-86
2021/03/26 13:23:37;;;;;;;;;;;13.60;69.90;;;;;;5054721;28;19995;-86
2021/03/26 13:26:05;;;;;;;;;;;13.60;68.50;;;;;;5055663;28;19905;-87
2021/03/26 13:29:00;;;;;;;;;;;13.70;68.50;;;;;;5054460;28;20372;-87
2021/03/26 13:31:31;;;;;;;;;;;13.70;68.10;;;;;;5055122;28;19960;-88
2021/03/26 13:33:59;;;;;;;;;;;13.80;68.20;;;;;;5054686;28;20434;-87
2021/03/26 13:36:54;;;;;;;;;;;13.80;68.70;;;;;;5075323;28;20003;-87
2021/03/26 13:39:22;;;;;;;;;;;13.80;69.40;;;;;;5050736;28;19904;-87
2021/03/26 13:42:09;;;;;;;;;;;13.80;68.80;;;;;;5058046;28;20523;-87
2021/03/26 13:44:53;;;;;;;;;;;14.00;67.40;;;;;;5058214;28;20000;-88
2021/03/26 13:47:37;;;;;;;;;;;14.00;67.70;;;;;;5058309;28;19926;-87
2021/03/26 13:50:20;;;;;;;;;;;14.00;67.40;;;;;;5057414;28;20339;-87
2021/03/26 13:52:46;;;;;;;;;;;14.00;65.00;;;;;;5076091;28;19904;-87
2021/03/26 13:55:14;;;;;;;;;;;14.00;65.60;;;;;;5075738;28;20006;-88
2021/03/26 13:57:41;;;;;;;;;;;14.00;66.30;;;;;;5057766;28;20373;-87
2021/03/26 14:00:07;;;;;;;;;;;13.90;66.90;;;;;;5057246;28;19919;-87
2021/03/26 14:02:41;;;;;;;;;;;13.90;66.30;;;;;;5057732;28;19909;-87
2021/03/26 14:05:15;;;;;;;;;;;14.00;65.10;;;;;;5075651;28;19908;-87
2021/03/26 14:07:43;;;;;;;;;;;14.00;65.50;;;;;;5075539;28;19994;-87
2021/03/26 14:10:15;;;;;;;;;;;14.00;66.30;;;;;;5056975;28;20347;-86
2021/03/26 14:12:42;;;;;;;;;;;14.00;65.80;;;;;;5075330;28;19990;-87
2021/03/26 14:15:19;;;;;;;;;;;14.10;64.00;;;;;;5075457;28;19920;-87
2021/03/26 14:17:47;;;;;;;;;;;14.20;63.80;;;;;;5074646;28;19919;-87
2021/03/26 14:20:32;;;;;;;;;;;14.20;64.10;;;;;;5056942;28;19914;-87
2021/03/26 14:23:00;;;;;;;;;;;14.10;64.00;;;;;;5057435;28;20391;-87
2021/03/26 14:25:38;;;;;;;;;;;14.10;64.20;;;;;;5057551;28;20357;-87
2021/03/26 14:28:06;;;;;;;;;;;14.20;64.20;;;;;;5057286;28;19904;-87
2021/03/26 14:30:51;;;;;;;;;;;14.20;63.80;;;;;;5057320;28;20315;-87
2021/03/26 14:33:16;;;;;;;;;;;14.20;63.50;;;;;;5075115;28;20349;-87
2021/03/26 14:35:45;;;;;;;;;;;14.40;63.10;;;;;;5057167;28;19908;-87
2021/03/26 14:38:31;;;;;;;;;;;14.60;63.10;;;;;;5057279;28;19904;-87
2021/03/26 14:41:08;;;;;;;;;;;14.70;61.10;;;;;;5074534;28;19911;-87
2021/03/26 14:43:34;;;;;;;;;;;14.80;59.90;;;;;;5074884;28;20003;-87
2021/03/26 14:46:01;;;;;;;;;;;14.80;60.00;;;;;;5074960;28;19944;-87
2021/03/26 14:48:30;;;;;;;;;;;15.00;59.60;;;;;;5074310;28;19909;-87
2021/03/26 14:51:22;;;;;;;;;;;15.10;58.40;;;;;;5074323;28;20403;-87
2021/03/26 14:54:08;;;;;;;;;;;15.10;58.00;;;;;;5070749;28;20007;-87
2021/03/26 14:56:56;;;;;;;;;;;15.20;56.00;;;;;;5074636;28;19909;-86
2021/03/26 14:59:24;;;;;;;;;;;15.30;56.10;;;;;;5035897;28;19905;-86